PWSweather.com
Personal Weather Stations
Station Observations
K4FB1
Clubhouse Heritage, Lakeland, FL 33812

Clubhouse HeritageLakeland, FL 33812

Lat: 27.969224, Lon: -81.897769

Elevation: 145

Station Type: Davis Vantage Pro2

http://www.ClubhouseWX.com

High Low Average
Temperature 62.2°F16.8°C 50.5°F10.3°C 56.7°F13.7°C
Dew Point 38.3°F3.5°C -42.8°F-41.6°C -13.7°F-25.4°C
Winds 7.0 mph 11.3 kmh Calm Calm 3.0 mph WNW4.8 kmh WNW
Wind Gusts 16.0 mph25.7 kmh 1.0 mph1.6 kmh 8.0 mph12.9 kmh
Humidity 49% 0% 12%
Pressure 30.22 in1023.4 mb 29.98 in1015.2 mb -
Precipitation 0.57 in14.5 mm - -
Hour Temp Dew Point Humidity Winds Wind Gusts Pressure Precip Precip Rate Daily Precip Total
12:00 AM 62.5°F16.9°C -39.3°F-39.6°C 0% 4.0 mph NW6.4 kmh NW 8.0 mph12.9 kmh 30.03 in1016.9 mb 0.00 in0.0 mm 0.00 in0.0 mm 0.79 in20.1 mm
12:05 AM 62.5°F16.9°C -39.3°F-39.6°C 0% 4.0 mph NW6.4 kmh NW 8.0 mph12.9 kmh 30.03 in1016.9 mb 0.00 in0.0 mm 0.00 in0.0 mm 0.79 in20.1 mm
12:10 AM 62.4°F16.9°C -39.3°F-39.6°C 0% 3.0 mph NW4.8 kmh NW 7.0 mph11.3 kmh 30.03 in1016.9 mb 0.00 in0.0 mm 0.00 in0.0 mm 0.79 in20.1 mm
12:15 AM 62.3°F16.8°C -39.3°F-39.6°C 0% 4.0 mph NW6.4 kmh NW 8.0 mph12.9 kmh 30.03 in1016.9 mb 0.00 in0.0 mm 0.00 in0.0 mm 0.79 in20.1 mm
12:20 AM 62.2°F16.8°C -39.3°F-39.6°C 0% 4.0 mph WNW6.4 kmh WNW 8.0 mph12.9 kmh 30.03 in1016.9 mb 0.00 in0.0 mm 0.00 in0.0 mm 0.79 in20.1 mm
12:25 AM 62.1°F16.7°C -39.3°F-39.6°C 0% 3.0 mph WNW4.8 kmh WNW 7.0 mph11.3 kmh 30.03 in1016.9 mb 0.00 in0.0 mm 0.00 in0.0 mm 0.79 in20.1 mm
12:30 AM 62.1°F16.7°C -39.3°F-39.6°C 0% 3.0 mph WNW4.8 kmh WNW 7.0 mph11.3 kmh 30.03 in1016.9 mb 0.00 in0.0 mm 0.00 in0.0 mm 0.79 in20.1 mm
12:35 AM 62.1°F16.7°C -39.3°F-39.6°C 0% 4.0 mph NW6.4 kmh NW 10.0 mph16.1 kmh 30.04 in1017.3 mb 0.00 in0.0 mm 0.00 in0.0 mm 0.79 in20.1 mm
12:40 AM 62.1°F16.7°C -39.3°F-39.6°C 0% 4.0 mph NW6.4 kmh NW 10.0 mph16.1 kmh 30.04 in1017.3 mb 0.00 in0.0 mm 0.00 in0.0 mm 0.79 in20.1 mm
12:45 AM 61.9°F16.6°C -39.3°F-39.6°C 0% 4.0 mph NW6.4 kmh NW 9.0 mph14.5 kmh 30.04 in1017.3 mb 0.00 in0.0 mm 0.00 in0.0 mm 0.79 in20.1 mm
12:50 AM 61.6°F16.4°C -39.3°F-39.6°C 0% 5.0 mph NW8.0 kmh NW 10.0 mph16.1 kmh 30.03 in1016.9 mb 0.00 in0.0 mm 0.00 in0.0 mm 0.79 in20.1 mm
12:55 AM 61.3°F16.3°C -40.5°F-40.3°C 1% 5.0 mph NW8.0 kmh NW 11.0 mph17.7 kmh 30.02 in1016.6 mb 0.00 in0.0 mm 0.00 in0.0 mm 0.79 in20.1 mm
01:00 AM 61.1°F16.2°C -40.6°F-40.3°C 1% 5.0 mph NW8.0 kmh NW 11.0 mph17.7 kmh 30.02 in1016.6 mb 0.00 in0.0 mm 0.00 in0.0 mm 0.00 in0.0 mm
01:05 AM 60.9°F16.1°C -40.8°F-40.4°C 0% 4.0 mph NW6.4 kmh NW 8.0 mph12.9 kmh 30.02 in1016.6 mb 0.00 in0.0 mm 0.00 in0.0 mm 0.00 in0.0 mm
01:10 AM 60.7°F15.9°C -40.8°F-40.4°C 0% 4.0 mph NW6.4 kmh NW 9.0 mph14.5 kmh 30.01 in1016.3 mb 0.00 in0.0 mm 0.00 in0.0 mm 0.00 in0.0 mm
01:15 AM 60.7°F15.9°C -40.8°F-40.4°C 0% 3.0 mph NW4.8 kmh NW 9.0 mph14.5 kmh 30.01 in1016.3 mb 0.00 in0.0 mm 0.00 in0.0 mm 0.00 in0.0 mm
01:20 AM 60.7°F15.9°C -40.8°F-40.4°C 0% 3.0 mph NW4.8 kmh NW 6.0 mph9.7 kmh 30.01 in1016.3 mb 0.00 in0.0 mm 0.00 in0.0 mm 0.00 in0.0 mm
01:25 AM 60.6°F15.9°C -40.8°F-40.4°C 0% 3.0 mph NW4.8 kmh NW 6.0 mph9.7 kmh 30.01 in1016.3 mb 0.00 in0.0 mm 0.00 in0.0 mm 0.00 in0.0 mm
01:30 AM 60.5°F15.8°C -40.8°F-40.4°C 0% 2.0 mph NW3.2 kmh NW 5.0 mph8.0 kmh 30.01 in1016.3 mb 0.00 in0.0 mm 0.00 in0.0 mm 0.00 in0.0 mm
01:35 AM 60.4°F15.8°C -40.8°F-40.4°C 0% 2.0 mph NNW3.2 kmh NNW 4.0 mph6.4 kmh 30.01 in1016.3 mb 0.00 in0.0 mm 0.00 in0.0 mm 0.00 in0.0 mm
01:40 AM 60.3°F15.7°C -40.8°F-40.4°C 0% 2.0 mph N3.2 kmh N 4.0 mph6.4 kmh 30.01 in1016.3 mb 0.00 in0.0 mm 0.00 in0.0 mm 0.00 in0.0 mm
01:45 AM 60.2°F15.7°C -40.8°F-40.4°C 0% 2.0 mph N3.2 kmh N 5.0 mph8.0 kmh 30.01 in1016.3 mb 0.00 in0.0 mm 0.00 in0.0 mm 0.00 in0.0 mm
01:50 AM 60.1°F15.6°C -40.8°F-40.4°C 0% 2.0 mph NNW3.2 kmh NNW 5.0 mph8.0 kmh 30.01 in1016.3 mb 0.00 in0.0 mm 0.00 in0.0 mm 0.00 in0.0 mm
01:55 AM 60.0°F15.6°C -40.8°F-40.4°C 0% 1.0 mph NNW1.6 kmh NNW 3.0 mph4.8 kmh 30.01 in1016.3 mb 0.00 in0.0 mm 0.00 in0.0 mm 0.00 in0.0 mm
02:00 AM 60.0°F15.6°C -40.8°F-40.4°C 0% 1.0 mph NNW1.6 kmh NNW 3.0 mph4.8 kmh 30.01 in1016.3 mb 0.00 in0.0 mm 0.00 in0.0 mm 0.00 in0.0 mm
02:05 AM 59.9°F15.5°C -40.8°F-40.4°C 0% 1.0 mph NNW1.6 kmh NNW 2.0 mph3.2 kmh 30.01 in1016.3 mb 0.00 in0.0 mm 0.00 in0.0 mm 0.00 in0.0 mm
02:10 AM 60.0°F15.6°C -40.8°F-40.4°C 0% 1.0 mph NNW1.6 kmh NNW 2.0 mph3.2 kmh 30.01 in1016.3 mb 0.00 in0.0 mm 0.00 in0.0 mm 0.00 in0.0 mm
02:15 AM 60.0°F15.6°C -40.8°F-40.4°C 0% 1.0 mph NNW1.6 kmh NNW 2.0 mph3.2 kmh 30.00 in1015.9 mb 0.00 in0.0 mm 0.00 in0.0 mm 0.00 in0.0 mm
02:20 AM 60.1°F15.6°C -40.8°F-40.4°C 0% 1.0 mph NNW1.6 kmh NNW 3.0 mph4.8 kmh 30.00 in1015.9 mb 0.00 in0.0 mm 0.00 in0.0 mm 0.00 in0.0 mm
02:25 AM 60.1°F15.6°C -40.8°F-40.4°C 0% 1.0 mph NNW1.6 kmh NNW 3.0 mph4.8 kmh 30.00 in1015.9 mb 0.00 in0.0 mm 0.00 in0.0 mm 0.00 in0.0 mm
02:30 AM 60.1°F15.6°C -40.8°F-40.4°C 0% 1.0 mph NNW1.6 kmh NNW 3.0 mph4.8 kmh 30.00 in1015.9 mb 0.00 in0.0 mm 0.00 in0.0 mm 0.00 in0.0 mm
02:35 AM 60.1°F15.6°C -40.8°F-40.4°C 0% 1.0 mph NNW1.6 kmh NNW 3.0 mph4.8 kmh 30.00 in1015.9 mb 0.00 in0.0 mm 0.00 in0.0 mm 0.00 in0.0 mm
02:40 AM 60.1°F15.6°C -40.8°F-40.4°C 0% 1.0 mph NNW1.6 kmh NNW 3.0 mph4.8 kmh 30.00 in1015.9 mb 0.00 in0.0 mm 0.00 in0.0 mm 0.00 in0.0 mm
02:45 AM 60.1°F15.6°C -40.8°F-40.4°C 0% 1.0 mph NNW1.6 kmh NNW 3.0 mph4.8 kmh 30.00 in1015.9 mb 0.00 in0.0 mm 0.00 in0.0 mm 0.00 in0.0 mm
02:50 AM 60.1°F15.6°C -40.8°F-40.4°C 0% 1.0 mph NNW1.6 kmh NNW 3.0 mph4.8 kmh 30.00 in1015.9 mb 0.00 in0.0 mm 0.00 in0.0 mm 0.00 in0.0 mm
02:55 AM 60.2°F15.7°C -40.8°F-40.4°C 0% 1.0 mph NNW1.6 kmh NNW 2.0 mph3.2 kmh 30.00 in1015.9 mb 0.00 in0.0 mm 0.00 in0.0 mm 0.00 in0.0 mm
03:00 AM 60.2°F15.7°C -40.8°F-40.4°C 0% 1.0 mph NNW1.6 kmh NNW 2.0 mph3.2 kmh 29.99 in1015.6 mb 0.00 in0.0 mm 0.00 in0.0 mm 0.00 in0.0 mm
03:05 AM 60.1°F15.6°C -40.8°F-40.4°C 0% 1.0 mph NNW1.6 kmh NNW 2.0 mph3.2 kmh 29.99 in1015.6 mb 0.00 in0.0 mm 0.00 in0.0 mm 0.00 in0.0 mm
03:10 AM 60.0°F15.6°C -40.8°F-40.4°C 0% 1.0 mph NNW1.6 kmh NNW 2.0 mph3.2 kmh 29.99 in1015.6 mb 0.00 in0.0 mm 0.00 in0.0 mm 0.00 in0.0 mm
03:15 AM 59.9°F15.5°C -40.8°F-40.4°C 0% Calm Calm 2.0 mph3.2 kmh 29.99 in1015.6 mb 0.00 in0.0 mm 0.00 in0.0 mm 0.00 in0.0 mm
03:20 AM 59.8°F15.4°C -40.8°F-40.4°C 0% Calm Calm 1.0 mph1.6 kmh 29.99 in1015.6 mb 0.00 in0.0 mm 0.00 in0.0 mm 0.00 in0.0 mm
03:25 AM 59.6°F15.3°C -40.8°F-40.4°C 0% Calm Calm 1.0 mph1.6 kmh 29.99 in1015.6 mb 0.00 in0.0 mm 0.00 in0.0 mm 0.00 in0.0 mm
03:30 AM 59.6°F15.3°C -40.8°F-40.4°C 0% Calm Calm 1.0 mph1.6 kmh 29.98 in1015.2 mb 0.00 in0.0 mm 0.00 in0.0 mm 0.00 in0.0 mm
03:35 AM 59.4°F15.2°C -40.8°F-40.4°C 0% Calm Calm 1.0 mph1.6 kmh 29.99 in1015.6 mb 0.00 in0.0 mm 0.00 in0.0 mm 0.00 in0.0 mm
03:40 AM 59.4°F15.2°C -40.8°F-40.4°C 0% Calm Calm 1.0 mph1.6 kmh 29.98 in1015.2 mb 0.00 in0.0 mm 0.00 in0.0 mm 0.00 in0.0 mm
03:45 AM 59.4°F15.2°C -40.8°F-40.4°C 0% Calm Calm 1.0 mph1.6 kmh 29.99 in1015.6 mb 0.00 in0.0 mm 0.00 in0.0 mm 0.00 in0.0 mm
03:50 AM 59.4°F15.2°C -40.8°F-40.4°C 0% Calm Calm 1.0 mph1.6 kmh 29.99 in1015.6 mb 0.00 in0.0 mm 0.00 in0.0 mm 0.00 in0.0 mm
03:55 AM 59.5°F15.3°C -40.8°F-40.4°C 0% 1.0 mph NNW1.6 kmh NNW 1.0 mph1.6 kmh 29.99 in1015.6 mb 0.00 in0.0 mm 0.00 in0.0 mm 0.00 in0.0 mm
04:00 AM 59.5°F15.3°C -40.8°F-40.4°C 0% 1.0 mph NNW1.6 kmh NNW 2.0 mph3.2 kmh 29.98 in1015.2 mb 0.00 in0.0 mm 0.00 in0.0 mm 0.00 in0.0 mm
04:05 AM 59.5°F15.3°C -40.8°F-40.4°C 0% 1.0 mph N1.6 kmh N 3.0 mph4.8 kmh 29.98 in1015.2 mb 0.00 in0.0 mm 0.00 in0.0 mm 0.00 in0.0 mm
04:10 AM 59.4°F15.2°C -40.8°F-40.4°C 0% 1.0 mph ESE1.6 kmh ESE 3.0 mph4.8 kmh 29.98 in1015.2 mb 0.00 in0.0 mm 0.00 in0.0 mm 0.00 in0.0 mm
04:15 AM 59.3°F15.2°C -40.8°F-40.4°C 0% Calm Calm 2.0 mph3.2 kmh 29.98 in1015.2 mb 0.00 in0.0 mm 0.00 in0.0 mm 0.00 in0.0 mm
04:20 AM 59.2°F15.1°C -40.8°F-40.4°C 0% 1.0 mph SE1.6 kmh SE 2.0 mph3.2 kmh 29.99 in1015.6 mb 0.00 in0.0 mm 0.00 in0.0 mm 0.00 in0.0 mm
04:25 AM 59.2°F15.1°C -40.8°F-40.4°C 0% 1.0 mph SE1.6 kmh SE 3.0 mph4.8 kmh 30.00 in1015.9 mb 0.00 in0.0 mm 0.00 in0.0 mm 0.00 in0.0 mm
04:30 AM 59.2°F15.1°C -40.8°F-40.4°C 0% 1.0 mph SW1.6 kmh SW 3.0 mph4.8 kmh 30.00 in1015.9 mb 0.00 in0.0 mm 0.00 in0.0 mm 0.00 in0.0 mm
04:35 AM 59.2°F15.1°C -40.8°F-40.4°C 0% 1.0 mph W1.6 kmh W 3.0 mph4.8 kmh 30.00 in1015.9 mb 0.00 in0.0 mm 0.00 in0.0 mm 0.00 in0.0 mm
04:40 AM 59.3°F15.2°C -40.8°F-40.4°C 0% 1.0 mph W1.6 kmh W 3.0 mph4.8 kmh 30.00 in1015.9 mb 0.00 in0.0 mm 0.00 in0.0 mm 0.00 in0.0 mm
04:45 AM 59.3°F15.2°C -40.8°F-40.4°C 0% 1.0 mph W1.6 kmh W 3.0 mph4.8 kmh 30.00 in1015.9 mb 0.00 in0.0 mm 0.00 in0.0 mm 0.00 in0.0 mm
04:50 AM 59.3°F15.2°C -40.8°F-40.4°C 0% 1.0 mph W1.6 kmh W 4.0 mph6.4 kmh 30.00 in1015.9 mb 0.00 in0.0 mm 0.00 in0.0 mm 0.00 in0.0 mm
04:55 AM 59.3°F15.2°C -40.8°F-40.4°C 0% 1.0 mph W1.6 kmh W 4.0 mph6.4 kmh 30.00 in1015.9 mb 0.00 in0.0 mm 0.00 in0.0 mm 0.00 in0.0 mm
05:00 AM 59.4°F15.2°C -40.8°F-40.4°C 0% 1.0 mph W1.6 kmh W 4.0 mph6.4 kmh 30.01 in1016.3 mb 0.00 in0.0 mm 0.00 in0.0 mm 0.00 in0.0 mm
05:05 AM 59.5°F15.3°C -40.8°F-40.4°C 0% 2.0 mph W3.2 kmh W 5.0 mph8.0 kmh 30.01 in1016.3 mb 0.00 in0.0 mm 0.00 in0.0 mm 0.00 in0.0 mm
05:10 AM 59.6°F15.3°C -40.8°F-40.4°C 0% 2.0 mph WSW3.2 kmh WSW 5.0 mph8.0 kmh 30.00 in1015.9 mb 0.00 in0.0 mm 0.00 in0.0 mm 0.00 in0.0 mm
05:15 AM 59.6°F15.3°C -40.8°F-40.4°C 0% 2.0 mph WSW3.2 kmh WSW 7.0 mph11.3 kmh 30.02 in1016.6 mb 0.00 in0.0 mm 0.00 in0.0 mm 0.00 in0.0 mm
05:20 AM 59.8°F15.4°C -40.8°F-40.4°C 0% 2.0 mph WSW3.2 kmh WSW 7.0 mph11.3 kmh 30.01 in1016.3 mb 0.00 in0.0 mm 0.00 in0.0 mm 0.00 in0.0 mm
05:25 AM 59.9°F15.5°C -40.8°F-40.4°C 0% 2.0 mph WSW3.2 kmh WSW 5.0 mph8.0 kmh 30.01 in1016.3 mb 0.00 in0.0 mm 0.00 in0.0 mm 0.00 in0.0 mm
05:30 AM 59.9°F15.5°C -40.8°F-40.4°C 0% 2.0 mph WSW3.2 kmh WSW 5.0 mph8.0 kmh 30.01 in1016.3 mb 0.00 in0.0 mm 0.00 in0.0 mm 0.00 in0.0 mm
05:35 AM 60.0°F15.6°C -40.8°F-40.4°C 0% 2.0 mph WSW3.2 kmh WSW 5.0 mph8.0 kmh 30.01 in1016.3 mb 0.00 in0.0 mm 0.00 in0.0 mm 0.00 in0.0 mm
05:40 AM 60.0°F15.6°C -40.8°F-40.4°C 0% 1.0 mph WSW1.6 kmh WSW 3.0 mph4.8 kmh 30.00 in1015.9 mb 0.00 in0.0 mm 0.00 in0.0 mm 0.00 in0.0 mm
05:45 AM 60.0°F15.6°C -40.8°F-40.4°C 0% 1.0 mph WSW1.6 kmh WSW 4.0 mph6.4 kmh 30.01 in1016.3 mb 0.00 in0.0 mm 0.00 in0.0 mm 0.00 in0.0 mm
05:50 AM 60.0°F15.6°C -40.8°F-40.4°C 0% 1.0 mph WSW1.6 kmh WSW 4.0 mph6.4 kmh 30.02 in1016.6 mb 0.00 in0.0 mm 0.00 in0.0 mm 0.00 in0.0 mm
05:55 AM 60.0°F15.6°C -40.8°F-40.4°C 0% 1.0 mph W1.6 kmh W 4.0 mph6.4 kmh 30.01 in1016.3 mb 0.00 in0.0 mm 0.00 in0.0 mm 0.00 in0.0 mm
06:00 AM 60.0°F15.6°C -40.8°F-40.4°C 0% 1.0 mph WNW1.6 kmh WNW 4.0 mph6.4 kmh 30.01 in1016.3 mb 0.00 in0.0 mm 0.00 in0.0 mm 0.00 in0.0 mm
06:05 AM 60.0°F15.6°C -40.8°F-40.4°C 0% 1.0 mph WNW1.6 kmh WNW 4.0 mph6.4 kmh 30.00 in1015.9 mb 0.00 in0.0 mm 0.00 in0.0 mm 0.00 in0.0 mm
06:10 AM 60.1°F15.6°C -40.8°F-40.4°C 0% 1.0 mph WNW1.6 kmh WNW 2.0 mph3.2 kmh 30.00 in1015.9 mb 0.00 in0.0 mm 0.00 in0.0 mm 0.00 in0.0 mm
06:15 AM 60.1°F15.6°C -40.8°F-40.4°C 0% 1.0 mph WNW1.6 kmh WNW 3.0 mph4.8 kmh 30.00 in1015.9 mb 0.00 in0.0 mm 0.00 in0.0 mm 0.00 in0.0 mm
06:20 AM 60.1°F15.6°C -40.8°F-40.4°C 0% 1.0 mph WNW1.6 kmh WNW 3.0 mph4.8 kmh 30.00 in1015.9 mb 0.00 in0.0 mm 0.00 in0.0 mm 0.00 in0.0 mm
06:25 AM 60.1°F15.6°C -40.8°F-40.4°C 0% Calm Calm 2.0 mph3.2 kmh 30.00 in1015.9 mb 0.00 in0.0 mm 0.00 in0.0 mm 0.00 in0.0 mm
06:30 AM 60.2°F15.7°C -40.8°F-40.4°C 0% Calm Calm 1.0 mph1.6 kmh 30.00 in1015.9 mb 0.00 in0.0 mm 0.00 in0.0 mm 0.00 in0.0 mm
06:35 AM 60.2°F15.7°C -40.8°F-40.4°C 0% Calm Calm 2.0 mph3.2 kmh 30.00 in1015.9 mb 0.00 in0.0 mm 0.00 in0.0 mm 0.00 in0.0 mm
06:40 AM 60.3°F15.7°C -40.8°F-40.4°C 0% 1.0 mph WNW1.6 kmh WNW 2.0 mph3.2 kmh 30.00 in1015.9 mb 0.00 in0.0 mm 0.00 in0.0 mm 0.00 in0.0 mm
06:45 AM 60.3°F15.7°C -40.8°F-40.4°C 0% Calm Calm 2.0 mph3.2 kmh 30.00 in1015.9 mb 0.00 in0.0 mm 0.00 in0.0 mm 0.00 in0.0 mm
06:50 AM 60.4°F15.8°C -40.8°F-40.4°C 0% 1.0 mph WNW1.6 kmh WNW 2.0 mph3.2 kmh 30.00 in1015.9 mb 0.00 in0.0 mm 0.00 in0.0 mm 0.00 in0.0 mm
06:55 AM 60.4°F15.8°C -40.8°F-40.4°C 0% 1.0 mph WNW1.6 kmh WNW 2.0 mph3.2 kmh 30.00 in1015.9 mb 0.00 in0.0 mm 0.00 in0.0 mm 0.00 in0.0 mm
07:00 AM 60.4°F15.8°C -40.8°F-40.4°C 0% Calm Calm 2.0 mph3.2 kmh 30.00 in1015.9 mb 0.00 in0.0 mm 0.00 in0.0 mm 0.00 in0.0 mm
07:05 AM 60.4°F15.8°C -40.8°F-40.4°C 0% 1.0 mph WNW1.6 kmh WNW 3.0 mph4.8 kmh 30.00 in1015.9 mb 0.00 in0.0 mm 0.00 in0.0 mm 0.00 in0.0 mm
07:10 AM 60.4°F15.8°C -40.8°F-40.4°C 0% 1.0 mph WNW1.6 kmh WNW 3.0 mph4.8 kmh 30.00 in1015.9 mb 0.00 in0.0 mm 0.00 in0.0 mm 0.00 in0.0 mm
07:15 AM 60.3°F15.7°C -40.8°F-40.4°C 0% 1.0 mph WNW1.6 kmh WNW 3.0 mph4.8 kmh 30.00 in1015.9 mb 0.00 in0.0 mm 0.00 in0.0 mm 0.00 in0.0 mm
07:20 AM 60.3°F15.7°C -40.8°F-40.4°C 0% 2.0 mph NW3.2 kmh NW 4.0 mph6.4 kmh 30.00 in1015.9 mb 0.00 in0.0 mm 0.00 in0.0 mm 0.00 in0.0 mm
07:25 AM 60.3°F15.7°C -40.8°F-40.4°C 0% 1.0 mph NW1.6 kmh NW 4.0 mph6.4 kmh 30.00 in1015.9 mb 0.00 in0.0 mm 0.00 in0.0 mm 0.00 in0.0 mm
07:30 AM 60.2°F15.7°C -40.8°F-40.4°C 0% Calm Calm 2.0 mph3.2 kmh 30.00 in1015.9 mb 0.00 in0.0 mm 0.00 in0.0 mm 0.00 in0.0 mm
07:35 AM 60.2°F15.7°C -40.8°F-40.4°C 0% Calm Calm 2.0 mph3.2 kmh 29.99 in1015.6 mb 0.00 in0.0 mm 0.00 in0.0 mm 0.00 in0.0 mm
07:40 AM 60.2°F15.7°C -40.8°F-40.4°C 0% 1.0 mph NW1.6 kmh NW 2.0 mph3.2 kmh 29.99 in1015.6 mb 0.00 in0.0 mm 0.00 in0.0 mm 0.00 in0.0 mm
07:45 AM 60.2°F15.7°C -40.8°F-40.4°C 0% 1.0 mph NW1.6 kmh NW 2.0 mph3.2 kmh 30.00 in1015.9 mb 0.00 in0.0 mm 0.00 in0.0 mm 0.00 in0.0 mm
07:50 AM 60.1°F15.6°C -40.8°F-40.4°C 0% 1.0 mph NW1.6 kmh NW 2.0 mph3.2 kmh 30.00 in1015.9 mb 0.00 in0.0 mm 0.00 in0.0 mm 0.00 in0.0 mm
07:55 AM 60.1°F15.6°C -40.8°F-40.4°C 0% 1.0 mph NW1.6 kmh NW 4.0 mph6.4 kmh 29.98 in1015.2 mb 0.00 in0.0 mm 0.00 in0.0 mm 0.00 in0.0 mm
08:00 AM 60.0°F15.6°C -40.8°F-40.4°C 0% 3.0 mph SE4.8 kmh SE 6.0 mph9.7 kmh 29.98 in1015.2 mb 0.00 in0.0 mm 0.00 in0.0 mm 0.00 in0.0 mm
08:05 AM 59.9°F15.5°C -40.8°F-40.4°C 0% 2.0 mph SE3.2 kmh SE 6.0 mph9.7 kmh 30.00 in1015.9 mb 0.00 in0.0 mm 0.00 in0.0 mm 0.00 in0.0 mm
08:10 AM 59.8°F15.4°C -40.8°F-40.4°C 0% 2.0 mph SSE3.2 kmh SSE 3.0 mph4.8 kmh 29.99 in1015.6 mb 0.00 in0.0 mm 0.00 in0.0 mm 0.00 in0.0 mm
08:15 AM 59.8°F15.4°C -40.8°F-40.4°C 0% 2.0 mph SSE3.2 kmh SSE 3.0 mph4.8 kmh 30.00 in1015.9 mb 0.00 in0.0 mm 0.00 in0.0 mm 0.00 in0.0 mm
08:20 AM 59.8°F15.4°C -40.8°F-40.4°C 0% 2.0 mph S3.2 kmh S 4.0 mph6.4 kmh 30.02 in1016.6 mb 0.00 in0.0 mm 0.00 in0.0 mm 0.00 in0.0 mm
08:25 AM 59.9°F15.5°C -40.8°F-40.4°C 0% 1.0 mph SW1.6 kmh SW 4.0 mph6.4 kmh 30.02 in1016.6 mb 0.00 in0.0 mm 0.00 in0.0 mm 0.00 in0.0 mm
08:30 AM 60.1°F15.6°C -40.8°F-40.4°C 0% 1.0 mph WSW1.6 kmh WSW 4.0 mph6.4 kmh 30.02 in1016.6 mb 0.00 in0.0 mm 0.00 in0.0 mm 0.00 in0.0 mm
08:35 AM 60.3°F15.7°C -40.8°F-40.4°C 0% 1.0 mph W1.6 kmh W 4.0 mph6.4 kmh 30.03 in1016.9 mb 0.00 in0.0 mm 0.00 in0.0 mm 0.00 in0.0 mm
08:40 AM 60.7°F15.9°C -40.8°F-40.4°C 0% 2.0 mph W3.2 kmh W 4.0 mph6.4 kmh 30.03 in1016.9 mb 0.00 in0.0 mm 0.00 in0.0 mm 0.00 in0.0 mm
08:45 AM 61.3°F16.3°C -40.8°F-40.4°C 0% 2.0 mph WNW3.2 kmh WNW 5.0 mph8.0 kmh 30.03 in1016.9 mb 0.00 in0.0 mm 0.00 in0.0 mm 0.00 in0.0 mm
08:50 AM 61.8°F16.6°C -40.8°F-40.4°C 0% 3.0 mph W4.8 kmh W 7.0 mph11.3 kmh 30.05 in1017.6 mb 0.00 in0.0 mm 0.00 in0.0 mm 0.00 in0.0 mm
08:55 AM 62.2°F16.8°C -40.8°F-40.4°C 0% 3.0 mph W4.8 kmh W 7.0 mph11.3 kmh 30.06 in1017.9 mb 0.00 in0.0 mm 0.00 in0.0 mm 0.00 in0.0 mm
09:00 AM 62.2°F16.8°C -40.8°F-40.4°C 0% 4.0 mph WNW6.4 kmh WNW 10.0 mph16.1 kmh 30.06 in1017.9 mb 0.00 in0.0 mm 0.00 in0.0 mm 0.00 in0.0 mm
09:05 AM 62.2°F16.8°C -40.8°F-40.4°C 0% 5.0 mph WNW8.0 kmh WNW 11.0 mph17.7 kmh 30.06 in1017.9 mb 0.00 in0.0 mm 0.00 in0.0 mm 0.00 in0.0 mm
09:10 AM 62.0°F16.7°C -40.8°F-40.4°C 0% 5.0 mph NW8.0 kmh NW 13.0 mph20.9 kmh 30.07 in1018.3 mb 0.00 in0.0 mm 0.00 in0.0 mm 0.00 in0.0 mm
09:15 AM 61.3°F16.3°C 10.0°F-12.2°C 13% 5.0 mph NW8.0 kmh NW 13.0 mph20.9 kmh 30.08 in1018.6 mb 0.00 in0.0 mm 0.00 in0.0 mm 0.00 in0.0 mm
09:20 AM 60.8°F16.0°C 14.3°F-9.8°C 16% 6.0 mph NW9.7 kmh NW 13.0 mph20.9 kmh 30.09 in1019.0 mb 0.00 in0.0 mm 0.00 in0.0 mm 0.00 in0.0 mm
09:25 AM 60.1°F15.6°C 27.7°F-2.4°C 29% 6.0 mph NW9.7 kmh NW 14.0 mph22.5 kmh 30.09 in1019.0 mb 0.00 in0.0 mm 0.00 in0.0 mm 0.00 in0.0 mm
09:30 AM 59.5°F15.3°C 25.5°F-3.6°C 27% 6.0 mph NW9.7 kmh NW 14.0 mph22.5 kmh 30.09 in1019.0 mb 0.00 in0.0 mm 0.00 in0.0 mm 0.00 in0.0 mm
09:35 AM 59.1°F15.1°C 22.3°F-5.4°C 24% 6.0 mph WNW9.7 kmh WNW 13.0 mph20.9 kmh 30.09 in1019.0 mb 0.00 in0.0 mm 0.00 in0.0 mm 0.00 in0.0 mm
09:40 AM 59.0°F15.0°C 14.2°F-9.9°C 17% 6.0 mph NW9.7 kmh NW 13.0 mph20.9 kmh 30.08 in1018.6 mb 0.00 in0.0 mm 0.00 in0.0 mm 0.00 in0.0 mm
09:45 AM 58.8°F14.9°C 15.3°F-9.3°C 18% 5.0 mph NW8.0 kmh NW 10.0 mph16.1 kmh 30.09 in1019.0 mb 0.00 in0.0 mm 0.00 in0.0 mm 0.00 in0.0 mm
09:50 AM 58.5°F14.7°C 22.8°F-5.1°C 25% 5.0 mph NW8.0 kmh NW 9.0 mph14.5 kmh 30.09 in1019.0 mb 0.00 in0.0 mm 0.00 in0.0 mm 0.00 in0.0 mm
09:55 AM 58.3°F14.6°C 19.6°F-6.9°C 22% 5.0 mph NW8.0 kmh NW 10.0 mph16.1 kmh 30.09 in1019.0 mb 0.00 in0.0 mm 0.00 in0.0 mm 0.00 in0.0 mm
10:00 AM 58.1°F14.5°C 12.1°F-11.1°C 16% 5.0 mph NW8.0 kmh NW 10.0 mph16.1 kmh 30.09 in1019.0 mb 0.00 in0.0 mm 0.00 in0.0 mm 0.00 in0.0 mm
10:05 AM 57.8°F14.3°C 1.5°F-16.9°C 10% 5.0 mph NW8.0 kmh NW 10.0 mph16.1 kmh 30.10 in1019.3 mb 0.01 in0.3 mm 0.12 in3.0 mm 0.01 in0.3 mm
10:10 AM 57.6°F14.2°C -30.5°F-34.7°C 2% 4.0 mph NW6.4 kmh NW 9.0 mph14.5 kmh 30.10 in1019.3 mb 0.01 in0.3 mm 0.00 in0.0 mm 0.01 in0.3 mm
10:15 AM 57.3°F14.1°C -30.5°F-34.7°C 0% 5.0 mph NW8.0 kmh NW 11.0 mph17.7 kmh 30.11 in1019.6 mb 0.01 in0.3 mm 0.00 in0.0 mm 0.01 in0.3 mm
10:20 AM 57.0°F13.9°C -30.5°F-34.7°C 0% 5.0 mph NW8.0 kmh NW 11.0 mph17.7 kmh 30.11 in1019.6 mb 0.01 in0.3 mm 0.00 in0.0 mm 0.01 in0.3 mm
10:25 AM 56.6°F13.7°C -30.5°F-34.7°C 0% 6.0 mph NW9.7 kmh NW 16.0 mph25.7 kmh 30.11 in1019.6 mb 0.02 in0.5 mm 0.12 in3.0 mm 0.02 in0.5 mm
10:30 AM 56.2°F13.4°C -30.5°F-34.7°C 0% 6.0 mph NW9.7 kmh NW 16.0 mph25.7 kmh 30.11 in1019.6 mb 0.03 in0.8 mm 0.12 in3.0 mm 0.03 in0.8 mm
10:35 AM 56.1°F13.4°C -30.5°F-34.7°C 0% 6.0 mph NW9.7 kmh NW 14.0 mph22.5 kmh 30.12 in1020.0 mb 0.04 in1.0 mm 0.12 in3.0 mm 0.04 in1.0 mm
10:40 AM 55.7°F13.2°C -30.5°F-34.7°C 0% 5.0 mph NW8.0 kmh NW 15.0 mph24.1 kmh 30.12 in1020.0 mb 0.05 in1.3 mm 0.12 in3.0 mm 0.05 in1.3 mm
10:45 AM 55.4°F13.0°C -30.5°F-34.7°C 0% 7.0 mph NW11.3 kmh NW 16.0 mph25.7 kmh 30.12 in1020.0 mb 0.05 in1.3 mm 0.00 in0.0 mm 0.05 in1.3 mm
10:50 AM 55.2°F12.9°C -30.5°F-34.7°C 0% 7.0 mph NW11.3 kmh NW 16.0 mph25.7 kmh 30.13 in1020.3 mb 0.05 in1.3 mm 0.00 in0.0 mm 0.05 in1.3 mm
10:55 AM 54.9°F12.7°C -30.5°F-34.7°C 0% 5.0 mph NW8.0 kmh NW 11.0 mph17.7 kmh 30.13 in1020.3 mb 0.06 in1.5 mm 0.12 in3.0 mm 0.06 in1.5 mm
11:00 AM 54.5°F12.5°C -30.5°F-34.7°C 0% 4.0 mph NW6.4 kmh NW 11.0 mph17.7 kmh 30.14 in1020.7 mb 0.12 in3.0 mm 0.07 in1.8 mm 0.12 in3.0 mm
11:05 AM 54.0°F12.2°C -30.5°F-34.7°C 0% 4.0 mph NW6.4 kmh NW 10.0 mph16.1 kmh 30.13 in1020.3 mb 0.24 in6.1 mm 1.44 in36.6 mm 0.25 in6.4 mm
11:10 AM 53.7°F12.1°C -30.5°F-34.7°C 0% 5.0 mph NW8.0 kmh NW 11.0 mph17.7 kmh 30.13 in1020.3 mb 0.29 in7.4 mm 0.60 in15.2 mm 0.30 in7.6 mm
11:15 AM 53.6°F12.0°C -30.5°F-34.7°C 0% 3.0 mph NW4.8 kmh NW 11.0 mph17.7 kmh 30.14 in1020.7 mb 0.34 in8.6 mm 0.60 in15.2 mm 0.35 in8.9 mm
11:20 AM 53.5°F11.9°C -30.5°F-34.7°C 0% 2.0 mph WNW3.2 kmh WNW 7.0 mph11.3 kmh 30.13 in1020.3 mb 0.37 in9.4 mm 0.36 in9.1 mm 0.38 in9.7 mm
11:25 AM 53.3°F11.8°C -30.5°F-34.7°C 0% 3.0 mph NW4.8 kmh NW 7.0 mph11.3 kmh 30.13 in1020.3 mb 0.41 in10.4 mm 0.48 in12.2 mm 0.43 in10.9 mm
11:30 AM 53.3°F11.8°C -30.5°F-34.7°C 0% 4.0 mph NW6.4 kmh NW 7.0 mph11.3 kmh 30.13 in1020.3 mb 0.42 in10.7 mm 0.12 in3.0 mm 0.45 in11.4 mm
11:35 AM 53.4°F11.9°C -30.5°F-34.7°C 0% 3.0 mph NW4.8 kmh NW 8.0 mph12.9 kmh 30.13 in1020.3 mb 0.41 in10.4 mm 0.00 in0.0 mm 0.45 in11.4 mm
11:40 AM 53.6°F12.0°C -30.5°F-34.7°C 0% 3.0 mph NW4.8 kmh NW 8.0 mph12.9 kmh 30.14 in1020.7 mb 0.41 in10.4 mm 0.00 in0.0 mm 0.46 in11.7 mm
11:45 AM 53.5°F11.9°C -30.5°F-34.7°C 0% 3.0 mph NW4.8 kmh NW 8.0 mph12.9 kmh 30.15 in1021.0 mb 0.42 in10.7 mm 0.12 in3.0 mm 0.47 in11.9 mm
11:50 AM 53.5°F11.9°C -30.5°F-34.7°C 0% 3.0 mph NW4.8 kmh NW 8.0 mph12.9 kmh 30.14 in1020.7 mb 0.44 in11.2 mm 0.24 in6.1 mm 0.49 in12.4 mm
11:55 AM 53.5°F11.9°C -30.5°F-34.7°C 0% 3.0 mph NW4.8 kmh NW 7.0 mph11.3 kmh 30.14 in1020.7 mb 0.43 in10.9 mm 0.00 in0.0 mm 0.50 in12.7 mm
12:00 PM 53.2°F11.8°C -30.5°F-34.7°C 0% 4.0 mph NW6.4 kmh NW 10.0 mph16.1 kmh 30.14 in1020.7 mb 0.38 in9.7 mm 0.00 in0.0 mm 0.52 in13.2 mm
12:05 PM 53.0°F11.7°C -30.5°F-34.7°C 0% 5.0 mph NW8.0 kmh NW 10.0 mph16.1 kmh 30.15 in1021.0 mb 0.29 in7.4 mm 0.00 in0.0 mm 0.54 in13.7 mm
12:10 PM 52.9°F11.6°C -30.5°F-34.7°C 0% 4.0 mph NW6.4 kmh NW 10.0 mph16.1 kmh 30.14 in1020.7 mb 0.26 in6.6 mm 0.00 in0.0 mm 0.56 in14.2 mm
12:15 PM 53.0°F11.7°C -30.5°F-34.7°C 0% 3.0 mph NW4.8 kmh NW 6.0 mph9.7 kmh 30.14 in1020.7 mb 0.22 in5.6 mm 0.00 in0.0 mm 0.57 in14.5 mm
12:20 PM 53.2°F11.8°C -30.5°F-34.7°C 0% 2.0 mph NW3.2 kmh NW 5.0 mph8.0 kmh 30.13 in1020.3 mb 0.17 in4.3 mm 0.00 in0.0 mm 0.57 in14.5 mm
12:25 PM 53.5°F11.9°C -30.5°F-34.7°C 0% 2.0 mph NNW3.2 kmh NNW 4.0 mph6.4 kmh 30.13 in1020.3 mb 0.13 in3.3 mm 0.00 in0.0 mm 0.57 in14.5 mm
12:30 PM 53.9°F12.2°C -30.5°F-34.7°C 0% 2.0 mph NNW3.2 kmh NNW 3.0 mph4.8 kmh 30.13 in1020.3 mb 0.12 in3.0 mm 0.00 in0.0 mm 0.57 in14.5 mm
12:35 PM 54.2°F12.3°C -30.5°F-34.7°C 0% 2.0 mph NNW3.2 kmh NNW 3.0 mph4.8 kmh 30.13 in1020.3 mb 0.11 in2.8 mm 0.00 in0.0 mm 0.57 in14.5 mm
12:40 PM 54.6°F12.6°C -30.5°F-34.7°C 0% 2.0 mph NW3.2 kmh NW 6.0 mph9.7 kmh 30.13 in1020.3 mb 0.11 in2.8 mm 0.00 in0.0 mm 0.57 in14.5 mm
12:45 PM 55.3°F12.9°C -30.5°F-34.7°C 0% 3.0 mph NW4.8 kmh NW 6.0 mph9.7 kmh 30.13 in1020.3 mb 0.10 in2.5 mm 0.00 in0.0 mm 0.57 in14.5 mm
12:50 PM 55.5°F13.1°C -30.5°F-34.7°C 0% 4.0 mph NW6.4 kmh NW 6.0 mph9.7 kmh 30.12 in1020.0 mb 0.08 in2.0 mm 0.00 in0.0 mm 0.57 in14.5 mm
12:55 PM 55.5°F13.1°C -30.5°F-34.7°C 0% 4.0 mph NW6.4 kmh NW 7.0 mph11.3 kmh 30.12 in1020.0 mb 0.07 in1.8 mm 0.00 in0.0 mm 0.57 in14.5 mm
01:00 PM 55.8°F13.2°C -30.5°F-34.7°C 0% 4.0 mph NW6.4 kmh NW 7.0 mph11.3 kmh 30.12 in1020.0 mb 0.05 in1.3 mm 0.00 in0.0 mm 0.57 in14.5 mm
01:05 PM 55.9°F13.3°C -30.5°F-34.7°C 0% 3.0 mph NW4.8 kmh NW 7.0 mph11.3 kmh 30.11 in1019.6 mb 0.03 in0.8 mm 0.00 in0.0 mm 0.57 in14.5 mm
01:10 PM 55.8°F13.2°C -30.5°F-34.7°C 0% 3.0 mph NW4.8 kmh NW 9.0 mph14.5 kmh 30.11 in1019.6 mb 0.01 in0.3 mm 0.00 in0.0 mm 0.57 in14.5 mm
01:15 PM 55.9°F13.3°C -30.5°F-34.7°C 0% 3.0 mph NW4.8 kmh NW 9.0 mph14.5 kmh 30.11 in1019.6 mb 0.00 in0.0 mm 0.00 in0.0 mm 0.57 in14.5 mm
01:20 PM 56.2°F13.4°C -30.5°F-34.7°C 0% 3.0 mph NW4.8 kmh NW 7.0 mph11.3 kmh 30.11 in1019.6 mb 0.00 in0.0 mm 0.00 in0.0 mm 0.57 in14.5 mm
01:25 PM 56.2°F13.4°C -30.5°F-34.7°C 0% 4.0 mph NNW6.4 kmh NNW 8.0 mph12.9 kmh 30.11 in1019.6 mb 0.00 in0.0 mm 0.00 in0.0 mm 0.57 in14.5 mm
01:30 PM 56.4°F13.6°C -30.5°F-34.7°C 0% 4.0 mph NW6.4 kmh NW 9.0 mph14.5 kmh 30.11 in1019.6 mb 0.00 in0.0 mm 0.00 in0.0 mm 0.57 in14.5 mm
01:35 PM 56.4°F13.6°C -30.5°F-34.7°C 0% 4.0 mph NW6.4 kmh NW 9.0 mph14.5 kmh 30.10 in1019.3 mb 0.00 in0.0 mm 0.00 in0.0 mm 0.57 in14.5 mm
01:40 PM 56.7°F13.7°C -30.5°F-34.7°C 0% 3.0 mph WNW4.8 kmh WNW 7.0 mph11.3 kmh 30.11 in1019.6 mb 0.00 in0.0 mm 0.00 in0.0 mm 0.57 in14.5 mm
01:45 PM 56.9°F13.8°C -30.5°F-34.7°C 0% 3.0 mph W4.8 kmh W 6.0 mph9.7 kmh 30.11 in1019.6 mb 0.00 in0.0 mm 0.00 in0.0 mm 0.57 in14.5 mm
01:50 PM 56.9°F13.8°C -30.5°F-34.7°C 0% 3.0 mph W4.8 kmh W 6.0 mph9.7 kmh 30.10 in1019.3 mb 0.00 in0.0 mm 0.00 in0.0 mm 0.57 in14.5 mm
01:55 PM 56.8°F13.8°C -30.5°F-34.7°C 0% 3.0 mph NW4.8 kmh NW 6.0 mph9.7 kmh 30.10 in1019.3 mb 0.00 in0.0 mm 0.00 in0.0 mm 0.57 in14.5 mm
02:00 PM 56.9°F13.8°C -30.5°F-34.7°C 0% 3.0 mph NW4.8 kmh NW 6.0 mph9.7 kmh 30.10 in1019.3 mb 0.00 in0.0 mm 0.00 in0.0 mm 0.57 in14.5 mm
02:05 PM 57.0°F13.9°C -30.5°F-34.7°C 0% 3.0 mph NW4.8 kmh NW 7.0 mph11.3 kmh 30.10 in1019.3 mb 0.00 in0.0 mm 0.00 in0.0 mm 0.57 in14.5 mm
02:10 PM 57.2°F14.0°C -30.5°F-34.7°C 0% 3.0 mph NW4.8 kmh NW 7.0 mph11.3 kmh 30.09 in1019.0 mb 0.00 in0.0 mm 0.00 in0.0 mm 0.57 in14.5 mm
02:15 PM 57.4°F14.1°C -30.5°F-34.7°C 0% 3.0 mph NW4.8 kmh NW 7.0 mph11.3 kmh 30.09 in1019.0 mb 0.00 in0.0 mm 0.00 in0.0 mm 0.57 in14.5 mm
02:20 PM 57.3°F14.1°C -30.5°F-34.7°C 0% 3.0 mph NW4.8 kmh NW 7.0 mph11.3 kmh 30.09 in1019.0 mb 0.00 in0.0 mm 0.00 in0.0 mm 0.57 in14.5 mm
02:25 PM 57.5°F14.2°C -30.5°F-34.7°C 0% 3.0 mph NW4.8 kmh NW 7.0 mph11.3 kmh 30.08 in1018.6 mb 0.00 in0.0 mm 0.00 in0.0 mm 0.57 in14.5 mm
02:30 PM 57.3°F14.1°C -30.5°F-34.7°C 0% 3.0 mph W4.8 kmh W 8.0 mph12.9 kmh 30.08 in1018.6 mb 0.00 in0.0 mm 0.00 in0.0 mm 0.57 in14.5 mm
02:35 PM 57.2°F14.0°C -30.5°F-34.7°C 0% 3.0 mph W4.8 kmh W 9.0 mph14.5 kmh 30.08 in1018.6 mb 0.00 in0.0 mm 0.00 in0.0 mm 0.57 in14.5 mm
02:40 PM 57.0°F13.9°C -30.5°F-34.7°C 0% 4.0 mph WNW6.4 kmh WNW 9.0 mph14.5 kmh 30.08 in1018.6 mb 0.00 in0.0 mm 0.00 in0.0 mm 0.57 in14.5 mm
02:45 PM 57.1°F13.9°C -30.5°F-34.7°C 0% 3.0 mph WNW4.8 kmh WNW 8.0 mph12.9 kmh 30.08 in1018.6 mb 0.00 in0.0 mm 0.00 in0.0 mm 0.57 in14.5 mm
02:50 PM 57.1°F13.9°C -30.5°F-34.7°C 0% 4.0 mph WNW6.4 kmh WNW 10.0 mph16.1 kmh 30.08 in1018.6 mb 0.00 in0.0 mm 0.00 in0.0 mm 0.57 in14.5 mm
02:55 PM 57.2°F14.0°C -30.5°F-34.7°C 0% 4.0 mph WNW6.4 kmh WNW 10.0 mph16.1 kmh 30.08 in1018.6 mb 0.00 in0.0 mm 0.00 in0.0 mm 0.57 in14.5 mm
03:00 PM 57.3°F14.1°C -30.5°F-34.7°C 0% 3.0 mph W4.8 kmh W 9.0 mph14.5 kmh 30.08 in1018.6 mb 0.00 in0.0 mm 0.00 in0.0 mm 0.57 in14.5 mm
03:05 PM 57.4°F14.1°C -30.5°F-34.7°C 0% 4.0 mph W6.4 kmh W 9.0 mph14.5 kmh 30.08 in1018.6 mb 0.00 in0.0 mm 0.00 in0.0 mm 0.57 in14.5 mm
03:10 PM 57.5°F14.2°C -42.8°F-41.6°C 1% 4.0 mph W6.4 kmh W 9.0 mph14.5 kmh 30.08 in1018.6 mb 0.00 in0.0 mm 0.00 in0.0 mm 0.57 in14.5 mm
03:15 PM 57.5°F14.2°C -17.5°F-27.5°C 4% 5.0 mph WNW8.0 kmh WNW 11.0 mph17.7 kmh 30.08 in1018.6 mb 0.00 in0.0 mm 0.00 in0.0 mm 0.57 in14.5 mm
03:20 PM 57.6°F14.2°C -42.8°F-41.6°C 1% 4.0 mph WNW6.4 kmh WNW 11.0 mph17.7 kmh 30.07 in1018.3 mb 0.00 in0.0 mm 0.00 in0.0 mm 0.57 in14.5 mm
03:25 PM 57.7°F14.3°C -30.5°F-34.7°C 2% 3.0 mph WNW4.8 kmh WNW 8.0 mph12.9 kmh 30.07 in1018.3 mb 0.00 in0.0 mm 0.00 in0.0 mm 0.57 in14.5 mm
03:30 PM 57.7°F14.3°C -13.0°F-25.0°C 5% 4.0 mph NW6.4 kmh NW 10.0 mph16.1 kmh 30.07 in1018.3 mb 0.00 in0.0 mm 0.00 in0.0 mm 0.57 in14.5 mm
03:35 PM 57.8°F14.3°C -22.9°F-30.5°C 3% 4.0 mph NW6.4 kmh NW 10.0 mph16.1 kmh 30.07 in1018.3 mb 0.00 in0.0 mm 0.00 in0.0 mm 0.57 in14.5 mm
03:40 PM 57.8°F14.3°C -30.4°F-34.7°C 2% 4.0 mph NW6.4 kmh NW 9.0 mph14.5 kmh 30.07 in1018.3 mb 0.00 in0.0 mm 0.00 in0.0 mm 0.57 in14.5 mm
03:45 PM 57.8°F14.3°C -12.9°F-24.9°C 5% 5.0 mph NW8.0 kmh NW 11.0 mph17.7 kmh 30.08 in1018.6 mb 0.00 in0.0 mm 0.00 in0.0 mm 0.57 in14.5 mm
03:50 PM 57.6°F14.2°C -6.2°F-21.2°C 7% 5.0 mph WNW8.0 kmh WNW 11.0 mph17.7 kmh 30.07 in1018.3 mb 0.00 in0.0 mm 0.00 in0.0 mm 0.57 in14.5 mm
03:55 PM 57.4°F14.1°C -6.4°F-21.3°C 7% 5.0 mph NW8.0 kmh NW 10.0 mph16.1 kmh 30.07 in1018.3 mb 0.00 in0.0 mm 0.00 in0.0 mm 0.57 in14.5 mm
04:00 PM 57.4°F14.1°C -23.1°F-30.6°C 3% 5.0 mph NW8.0 kmh NW 10.0 mph16.1 kmh 30.08 in1018.6 mb 0.00 in0.0 mm 0.00 in0.0 mm 0.57 in14.5 mm
04:05 PM 57.4°F14.1°C -30.7°F-34.8°C 2% 4.0 mph NW6.4 kmh NW 10.0 mph16.1 kmh 30.08 in1018.6 mb 0.00 in0.0 mm 0.00 in0.0 mm 0.57 in14.5 mm
04:10 PM 57.5°F14.2°C -23.1°F-30.6°C 3% 4.0 mph NW6.4 kmh NW 9.0 mph14.5 kmh 30.08 in1018.6 mb 0.00 in0.0 mm 0.00 in0.0 mm 0.57 in14.5 mm
04:15 PM 57.5°F14.2°C -30.6°F-34.8°C 2% 4.0 mph NW6.4 kmh NW 9.0 mph14.5 kmh 30.08 in1018.6 mb 0.00 in0.0 mm 0.00 in0.0 mm 0.57 in14.5 mm
04:20 PM 57.3°F14.1°C -6.4°F-21.3°C 7% 5.0 mph NW8.0 kmh NW 10.0 mph16.1 kmh 30.08 in1018.6 mb 0.00 in0.0 mm 0.00 in0.0 mm 0.57 in14.5 mm
04:25 PM 57.3°F14.1°C -17.7°F-27.6°C 4% 5.0 mph NW8.0 kmh NW 10.0 mph16.1 kmh 30.08 in1018.6 mb 0.00 in0.0 mm 0.00 in0.0 mm 0.57 in14.5 mm
04:30 PM 57.3°F14.1°C -23.2°F-30.7°C 3% 5.0 mph NW8.0 kmh NW 11.0 mph17.7 kmh 30.08 in1018.6 mb 0.00 in0.0 mm 0.00 in0.0 mm 0.57 in14.5 mm
04:35 PM 57.1°F13.9°C -13.4°F-25.2°C 5% 5.0 mph NW8.0 kmh NW 12.0 mph19.3 kmh 30.09 in1019.0 mb 0.00 in0.0 mm 0.00 in0.0 mm 0.57 in14.5 mm
04:40 PM 57.0°F13.9°C -9.8°F-23.2°C 6% 6.0 mph NW9.7 kmh NW 14.0 mph22.5 kmh 30.09 in1019.0 mb 0.00 in0.0 mm 0.00 in0.0 mm 0.57 in14.5 mm
04:45 PM 56.8°F13.8°C -6.8°F-21.6°C 7% 6.0 mph NW9.7 kmh NW 14.0 mph22.5 kmh 30.09 in1019.0 mb 0.00 in0.0 mm 0.00 in0.0 mm 0.57 in14.5 mm
04:50 PM 56.8°F13.8°C -6.8°F-21.6°C 7% 5.0 mph NW8.0 kmh NW 10.0 mph16.1 kmh 30.09 in1019.0 mb 0.00 in0.0 mm 0.00 in0.0 mm 0.57 in14.5 mm
04:55 PM 56.7°F13.7°C 2.7°F-16.3°C 11% 6.0 mph NW9.7 kmh NW 13.0 mph20.9 kmh 30.09 in1019.0 mb 0.00 in0.0 mm 0.00 in0.0 mm 0.57 in14.5 mm
05:00 PM 56.7°F13.7°C 6.3°F-14.3°C 13% 6.0 mph NW9.7 kmh NW 13.0 mph20.9 kmh 30.08 in1018.6 mb 0.00 in0.0 mm 0.00 in0.0 mm 0.57 in14.5 mm
05:05 PM 56.8°F13.8°C 9.6°F-12.4°C 15% 6.0 mph NW9.7 kmh NW 13.0 mph20.9 kmh 30.09 in1019.0 mb 0.00 in0.0 mm 0.00 in0.0 mm 0.57 in14.5 mm
05:10 PM 57.1°F13.9°C 8.3°F-13.2°C 14% 6.0 mph NW9.7 kmh NW 12.0 mph19.3 kmh 30.09 in1019.0 mb 0.00 in0.0 mm 0.00 in0.0 mm 0.57 in14.5 mm
05:15 PM 57.5°F14.2°C 18.9°F-7.3°C 22% 5.0 mph NW8.0 kmh NW 12.0 mph19.3 kmh 30.09 in1019.0 mb 0.00 in0.0 mm 0.00 in0.0 mm 0.57 in14.5 mm
05:20 PM 57.8°F14.3°C 26.5°F-3.1°C 30% 4.0 mph WNW6.4 kmh WNW 9.0 mph14.5 kmh 30.09 in1019.0 mb 0.00 in0.0 mm 0.00 in0.0 mm 0.57 in14.5 mm
05:25 PM 57.8°F14.3°C 28.1°F-2.2°C 32% 4.0 mph NW6.4 kmh NW 10.0 mph16.1 kmh 30.09 in1019.0 mb 0.00 in0.0 mm 0.00 in0.0 mm 0.57 in14.5 mm
05:30 PM 57.5°F14.2°C 27.8°F-2.3°C 32% 5.0 mph NW8.0 kmh NW 12.0 mph19.3 kmh 30.09 in1019.0 mb 0.00 in0.0 mm 0.00 in0.0 mm 0.57 in14.5 mm
05:35 PM 57.3°F14.1°C 30.5°F-0.8°C 36% 6.0 mph NW9.7 kmh NW 14.0 mph22.5 kmh 30.09 in1019.0 mb 0.00 in0.0 mm 0.00 in0.0 mm 0.57 in14.5 mm
05:40 PM 57.3°F14.1°C 28.4°F-2.0°C 33% 5.0 mph NW8.0 kmh NW 14.0 mph22.5 kmh 30.09 in1019.0 mb 0.00 in0.0 mm 0.00 in0.0 mm 0.57 in14.5 mm
05:45 PM 57.4°F14.1°C 31.3°F-0.4°C 37% 4.0 mph WNW6.4 kmh WNW 10.0 mph16.1 kmh 30.09 in1019.0 mb 0.00 in0.0 mm 0.00 in0.0 mm 0.57 in14.5 mm
05:50 PM 57.7°F14.3°C 32.2°F0.1°C 38% 5.0 mph WNW8.0 kmh WNW 11.0 mph17.7 kmh 30.09 in1019.0 mb 0.00 in0.0 mm 0.00 in0.0 mm 0.57 in14.5 mm
05:55 PM 57.9°F14.4°C 36.1°F2.3°C 44% 4.0 mph NW6.4 kmh NW 11.0 mph17.7 kmh 30.09 in1019.0 mb 0.00 in0.0 mm 0.00 in0.0 mm 0.57 in14.5 mm
06:00 PM 57.8°F14.3°C 36.6°F2.6°C 45% 4.0 mph WNW6.4 kmh WNW 11.0 mph17.7 kmh 30.09 in1019.0 mb 0.00 in0.0 mm 0.00 in0.0 mm 0.57 in14.5 mm
06:05 PM 57.7°F14.3°C 36.5°F2.5°C 45% 5.0 mph NW8.0 kmh NW 12.0 mph19.3 kmh 30.10 in1019.3 mb 0.00 in0.0 mm 0.00 in0.0 mm 0.57 in14.5 mm
06:10 PM 57.5°F14.2°C 35.7°F2.1°C 44% 5.0 mph NW8.0 kmh NW 12.0 mph19.3 kmh 30.10 in1019.3 mb 0.00 in0.0 mm 0.00 in0.0 mm 0.57 in14.5 mm
06:15 PM 57.6°F14.2°C 35.2°F1.8°C 43% 5.0 mph NW8.0 kmh NW 11.0 mph17.7 kmh 30.10 in1019.3 mb 0.00 in0.0 mm 0.00 in0.0 mm 0.57 in14.5 mm
06:20 PM 57.5°F14.2°C 36.3°F2.4°C 45% 4.0 mph NW6.4 kmh NW 12.0 mph19.3 kmh 30.10 in1019.3 mb 0.00 in0.0 mm 0.00 in0.0 mm 0.57 in14.5 mm
06:25 PM 57.5°F14.2°C 37.4°F3.0°C 47% 5.0 mph NW8.0 kmh NW 12.0 mph19.3 kmh 30.10 in1019.3 mb 0.00 in0.0 mm 0.00 in0.0 mm 0.57 in14.5 mm
06:30 PM 57.5°F14.2°C 37.4°F3.0°C 47% 5.0 mph WNW8.0 kmh WNW 12.0 mph19.3 kmh 30.10 in1019.3 mb 0.00 in0.0 mm 0.00 in0.0 mm 0.57 in14.5 mm
06:35 PM 57.3°F14.1°C 38.3°F3.5°C 49% 6.0 mph WNW9.7 kmh WNW 12.0 mph19.3 kmh 30.10 in1019.3 mb 0.00 in0.0 mm 0.00 in0.0 mm 0.57 in14.5 mm
06:40 PM 57.2°F14.0°C 38.2°F3.4°C 49% 5.0 mph WNW8.0 kmh WNW 11.0 mph17.7 kmh 30.10 in1019.3 mb 0.00 in0.0 mm 0.00 in0.0 mm 0.57 in14.5 mm
06:45 PM 57.1°F13.9°C 37.6°F3.1°C 48% 4.0 mph W6.4 kmh W 10.0 mph16.1 kmh 30.10 in1019.3 mb 0.00 in0.0 mm 0.00 in0.0 mm 0.57 in14.5 mm
06:50 PM 57.1°F13.9°C 37.0°F2.8°C 47% 4.0 mph WNW6.4 kmh WNW 10.0 mph16.1 kmh 30.10 in1019.3 mb 0.00 in0.0 mm 0.00 in0.0 mm 0.57 in14.5 mm
06:55 PM 57.1°F13.9°C 37.6°F3.1°C 48% 4.0 mph WNW6.4 kmh WNW 10.0 mph16.1 kmh 30.10 in1019.3 mb 0.00 in0.0 mm 0.00 in0.0 mm 0.57 in14.5 mm
07:00 PM 57.0°F13.9°C 35.9°F2.2°C 45% 5.0 mph NW8.0 kmh NW 10.0 mph16.1 kmh 30.11 in1019.6 mb 0.00 in0.0 mm 0.00 in0.0 mm 0.57 in14.5 mm
07:05 PM 56.9°F13.8°C 34.6°F1.4°C 43% 5.0 mph NW8.0 kmh NW 10.0 mph16.1 kmh 30.10 in1019.3 mb 0.00 in0.0 mm 0.00 in0.0 mm 0.57 in14.5 mm
07:10 PM 56.7°F13.7°C 36.1°F2.3°C 46% 5.0 mph NW8.0 kmh NW 11.0 mph17.7 kmh 30.11 in1019.6 mb 0.00 in0.0 mm 0.00 in0.0 mm 0.57 in14.5 mm
07:15 PM 56.4°F13.6°C 34.2°F1.2°C 43% 4.0 mph NW6.4 kmh NW 11.0 mph17.7 kmh 30.11 in1019.6 mb 0.00 in0.0 mm 0.00 in0.0 mm 0.57 in14.5 mm
07:20 PM 56.1°F13.4°C 33.3°F0.7°C 42% 4.0 mph NW6.4 kmh NW 9.0 mph14.5 kmh 30.11 in1019.6 mb 0.00 in0.0 mm 0.00 in0.0 mm 0.57 in14.5 mm
07:25 PM 55.9°F13.3°C 30.6°F-0.8°C 38% 4.0 mph NW6.4 kmh NW 9.0 mph14.5 kmh 30.12 in1020.0 mb 0.00 in0.0 mm 0.00 in0.0 mm 0.57 in14.5 mm
07:30 PM 55.7°F13.2°C 30.5°F-0.8°C 38% 4.0 mph NW6.4 kmh NW 11.0 mph17.7 kmh 30.12 in1020.0 mb 0.00 in0.0 mm 0.00 in0.0 mm 0.57 in14.5 mm
07:35 PM 55.6°F13.1°C 32.8°F0.4°C 42% 5.0 mph NW8.0 kmh NW 11.0 mph17.7 kmh 30.12 in1020.0 mb 0.00 in0.0 mm 0.00 in0.0 mm 0.57 in14.5 mm
07:40 PM 55.4°F13.0°C 33.3°F0.7°C 43% 6.0 mph NW9.7 kmh NW 11.0 mph17.7 kmh 30.12 in1020.0 mb 0.00 in0.0 mm 0.00 in0.0 mm 0.57 in14.5 mm
07:45 PM 55.1°F12.8°C 31.8°F-0.1°C 41% 5.0 mph NW8.0 kmh NW 15.0 mph24.1 kmh 30.13 in1020.3 mb 0.00 in0.0 mm 0.00 in0.0 mm 0.57 in14.5 mm
07:50 PM 54.9°F12.7°C 29.1°F-1.6°C 37% 5.0 mph NW8.0 kmh NW 15.0 mph24.1 kmh 30.13 in1020.3 mb 0.00 in0.0 mm 0.00 in0.0 mm 0.57 in14.5 mm
07:55 PM 54.7°F12.6°C 27.6°F-2.4°C 35% 5.0 mph NW8.0 kmh NW 15.0 mph24.1 kmh 30.12 in1020.0 mb 0.00 in0.0 mm 0.00 in0.0 mm 0.57 in14.5 mm
08:00 PM 54.6°F12.6°C 29.5°F-1.4°C 38% 5.0 mph NW8.0 kmh NW 12.0 mph19.3 kmh 30.13 in1020.3 mb 0.00 in0.0 mm 0.00 in0.0 mm 0.57 in14.5 mm
08:05 PM 54.4°F12.4°C 28.6°F-1.9°C 37% 5.0 mph NW8.0 kmh NW 12.0 mph19.3 kmh 30.13 in1020.3 mb 0.00 in0.0 mm 0.00 in0.0 mm 0.57 in14.5 mm
08:10 PM 54.3°F12.4°C 27.9°F-2.3°C 36% 4.0 mph NW6.4 kmh NW 10.0 mph16.1 kmh 30.14 in1020.7 mb 0.00 in0.0 mm 0.00 in0.0 mm 0.57 in14.5 mm
08:15 PM 54.1°F12.3°C 25.6°F-3.6°C 33% 3.0 mph NW4.8 kmh NW 10.0 mph16.1 kmh 30.14 in1020.7 mb 0.00 in0.0 mm 0.00 in0.0 mm 0.57 in14.5 mm
08:20 PM 53.9°F12.2°C 25.4°F-3.7°C 33% 3.0 mph NW4.8 kmh NW 10.0 mph16.1 kmh 30.14 in1020.7 mb 0.00 in0.0 mm 0.00 in0.0 mm 0.57 in14.5 mm
08:25 PM 53.8°F12.1°C 27.4°F-2.6°C 36% 4.0 mph NW6.4 kmh NW 10.0 mph16.1 kmh 30.14 in1020.7 mb 0.00 in0.0 mm 0.00 in0.0 mm 0.57 in14.5 mm
08:30 PM 53.7°F12.1°C 28.7°F-1.8°C 38% 4.0 mph NW6.4 kmh NW 11.0 mph17.7 kmh 30.14 in1020.7 mb 0.00 in0.0 mm 0.00 in0.0 mm 0.57 in14.5 mm
08:35 PM 53.5°F11.9°C 27.2°F-2.7°C 36% 4.0 mph NW6.4 kmh NW 11.0 mph17.7 kmh 30.15 in1021.0 mb 0.00 in0.0 mm 0.00 in0.0 mm 0.57 in14.5 mm
08:40 PM 53.5°F11.9°C 29.1°F-1.6°C 39% 5.0 mph NW8.0 kmh NW 12.0 mph19.3 kmh 30.15 in1021.0 mb 0.00 in0.0 mm 0.00 in0.0 mm 0.57 in14.5 mm
08:45 PM 53.4°F11.9°C 30.3°F-0.9°C 41% 5.0 mph NW8.0 kmh NW 12.0 mph19.3 kmh 30.15 in1021.0 mb 0.00 in0.0 mm 0.00 in0.0 mm 0.57 in14.5 mm
08:50 PM 53.2°F11.8°C 28.9°F-1.7°C 39% 4.0 mph NW6.4 kmh NW 10.0 mph16.1 kmh 30.16 in1021.3 mb 0.00 in0.0 mm 0.00 in0.0 mm 0.57 in14.5 mm
08:55 PM 53.0°F11.7°C 28.7°F-1.8°C 39% 3.0 mph NW4.8 kmh NW 9.0 mph14.5 kmh 30.16 in1021.3 mb 0.00 in0.0 mm 0.00 in0.0 mm 0.57 in14.5 mm
09:00 PM 52.8°F11.6°C 27.2°F-2.7°C 37% 3.0 mph NW4.8 kmh NW 8.0 mph12.9 kmh 30.16 in1021.3 mb 0.00 in0.0 mm 0.00 in0.0 mm 0.57 in14.5 mm
09:05 PM 52.5°F11.4°C 25.6°F-3.6°C 35% 3.0 mph NW4.8 kmh NW 7.0 mph11.3 kmh 30.16 in1021.3 mb 0.00 in0.0 mm 0.00 in0.0 mm 0.57 in14.5 mm
09:10 PM 52.4°F11.3°C 25.5°F-3.6°C 35% 3.0 mph NW4.8 kmh NW 8.0 mph12.9 kmh 30.16 in1021.3 mb 0.00 in0.0 mm 0.00 in0.0 mm 0.57 in14.5 mm
09:15 PM 52.3°F11.3°C 25.4°F-3.7°C 35% 4.0 mph NW6.4 kmh NW 8.0 mph12.9 kmh 30.17 in1021.7 mb 0.00 in0.0 mm 0.00 in0.0 mm 0.57 in14.5 mm
09:20 PM 52.2°F11.2°C 26.0°F-3.3°C 36% 4.0 mph WNW6.4 kmh WNW 9.0 mph14.5 kmh 30.17 in1021.7 mb 0.00 in0.0 mm 0.00 in0.0 mm 0.57 in14.5 mm
09:25 PM 52.1°F11.2°C 26.6°F-3.0°C 37% 4.0 mph WNW6.4 kmh WNW 9.0 mph14.5 kmh 30.18 in1022.0 mb 0.00 in0.0 mm 0.00 in0.0 mm 0.57 in14.5 mm
09:30 PM 52.0°F11.1°C 25.8°F-3.4°C 36% 4.0 mph NW6.4 kmh NW 7.0 mph11.3 kmh 30.18 in1022.0 mb 0.00 in0.0 mm 0.00 in0.0 mm 0.57 in14.5 mm
09:35 PM 51.9°F11.1°C 25.8°F-3.4°C 36% 3.0 mph NW4.8 kmh NW 9.0 mph14.5 kmh 30.18 in1022.0 mb 0.00 in0.0 mm 0.00 in0.0 mm 0.57 in14.5 mm
09:40 PM 51.7°F10.9°C 25.6°F-3.6°C 36% 3.0 mph NW4.8 kmh NW 9.0 mph14.5 kmh 30.18 in1022.0 mb 0.00 in0.0 mm 0.00 in0.0 mm 0.57 in14.5 mm
09:45 PM 51.6°F10.9°C 25.5°F-3.6°C 36% 3.0 mph NW4.8 kmh NW 7.0 mph11.3 kmh 30.18 in1022.0 mb 0.00 in0.0 mm 0.00 in0.0 mm 0.57 in14.5 mm
09:50 PM 51.5°F10.8°C 25.4°F-3.7°C 36% 4.0 mph NW6.4 kmh NW 10.0 mph16.1 kmh 30.18 in1022.0 mb 0.00 in0.0 mm 0.00 in0.0 mm 0.57 in14.5 mm
09:55 PM 51.4°F10.8°C 24.6°F-4.1°C 35% 3.0 mph WNW4.8 kmh WNW 10.0 mph16.1 kmh 30.19 in1022.4 mb 0.00 in0.0 mm 0.00 in0.0 mm 0.57 in14.5 mm
10:00 PM 51.3°F10.7°C 25.2°F-3.8°C 36% 3.0 mph NW4.8 kmh NW 10.0 mph16.1 kmh 30.19 in1022.4 mb 0.00 in0.0 mm 0.00 in0.0 mm 0.57 in14.5 mm
10:05 PM 51.2°F10.7°C 23.0°F-5.0°C 33% 4.0 mph NW6.4 kmh NW 9.0 mph14.5 kmh 30.19 in1022.4 mb 0.00 in0.0 mm 0.00 in0.0 mm 0.57 in14.5 mm
10:10 PM 51.1°F10.6°C 22.2°F-5.4°C 32% 3.0 mph NW4.8 kmh NW 7.0 mph11.3 kmh 30.19 in1022.4 mb 0.00 in0.0 mm 0.00 in0.0 mm 0.57 in14.5 mm
10:15 PM 50.9°F10.5°C 21.3°F-5.9°C 31% 2.0 mph NW3.2 kmh NW 7.0 mph11.3 kmh 30.20 in1022.7 mb 0.00 in0.0 mm 0.00 in0.0 mm 0.57 in14.5 mm
10:20 PM 50.8°F10.4°C 19.6°F-6.9°C 29% 2.0 mph NW3.2 kmh NW 8.0 mph12.9 kmh 30.20 in1022.7 mb 0.00 in0.0 mm 0.00 in0.0 mm 0.57 in14.5 mm
10:25 PM 50.7°F10.4°C 17.9°F-7.8°C 27% 3.0 mph NW4.8 kmh NW 8.0 mph12.9 kmh 30.20 in1022.7 mb 0.00 in0.0 mm 0.00 in0.0 mm 0.57 in14.5 mm
10:30 PM 50.6°F10.3°C 15.1°F-9.4°C 24% 3.0 mph NW4.8 kmh NW 7.0 mph11.3 kmh 30.20 in1022.7 mb 0.00 in0.0 mm 0.00 in0.0 mm 0.57 in14.5 mm
10:35 PM 50.6°F10.3°C 13.1°F-10.5°C 22% 2.0 mph NW3.2 kmh NW 7.0 mph11.3 kmh 30.20 in1022.7 mb 0.00 in0.0 mm 0.00 in0.0 mm 0.57 in14.5 mm
10:40 PM 50.5°F10.3°C 10.9°F-11.7°C 20% 3.0 mph NW4.8 kmh NW 6.0 mph9.7 kmh 30.20 in1022.7 mb 0.00 in0.0 mm 0.00 in0.0 mm 0.57 in14.5 mm
10:45 PM 50.5°F10.3°C 9.7°F-12.4°C 19% 3.0 mph NW4.8 kmh NW 7.0 mph11.3 kmh 30.20 in1022.7 mb 0.00 in0.0 mm 0.00 in0.0 mm 0.57 in14.5 mm
10:50 PM 50.5°F10.3°C 9.7°F-12.4°C 19% 4.0 mph NW6.4 kmh NW 9.0 mph14.5 kmh 30.21 in1023.0 mb 0.00 in0.0 mm 0.00 in0.0 mm 0.57 in14.5 mm
10:55 PM 50.5°F10.3°C 8.5°F-13.1°C 18% 4.0 mph NW6.4 kmh NW 9.0 mph14.5 kmh 30.21 in1023.0 mb 0.00 in0.0 mm 0.00 in0.0 mm 0.57 in14.5 mm
11:00 PM 50.5°F10.3°C 7.2°F-13.8°C 17% 4.0 mph NW6.4 kmh NW 7.0 mph11.3 kmh 30.21 in1023.0 mb 0.00 in0.0 mm 0.00 in0.0 mm 0.57 in14.5 mm
11:05 PM 50.5°F10.3°C 5.9°F-14.5°C 16% 4.0 mph NW6.4 kmh NW 8.0 mph12.9 kmh 30.21 in1023.0 mb 0.00 in0.0 mm 0.00 in0.0 mm 0.57 in14.5 mm
11:10 PM 50.5°F10.3°C 4.5°F-15.3°C 15% 4.0 mph NW6.4 kmh NW 9.0 mph14.5 kmh 30.21 in1023.0 mb 0.00 in0.0 mm 0.00 in0.0 mm 0.57 in14.5 mm
11:15 PM 50.6°F10.3°C 3.1°F-16.1°C 14% 4.0 mph NW6.4 kmh NW 9.0 mph14.5 kmh 30.21 in1023.0 mb 0.00 in0.0 mm 0.00 in0.0 mm 0.57 in14.5 mm
11:20 PM 50.6°F10.3°C -0.3°F-17.9°C 12% 3.0 mph NW4.8 kmh NW 7.0 mph11.3 kmh 30.21 in1023.0 mb 0.00 in0.0 mm 0.00 in0.0 mm 0.57 in14.5 mm
11:25 PM 50.6°F10.3°C -2.1°F-18.9°C 11% 3.0 mph NW4.8 kmh NW 6.0 mph9.7 kmh 30.21 in1023.0 mb 0.00 in0.0 mm 0.00 in0.0 mm 0.57 in14.5 mm
11:30 PM 50.6°F10.3°C -6.3°F-21.3°C 9% 3.0 mph NW4.8 kmh NW 7.0 mph11.3 kmh 30.21 in1023.0 mb 0.00 in0.0 mm 0.00 in0.0 mm 0.57 in14.5 mm
11:35 PM 50.7°F10.4°C -6.2°F-21.2°C 9% 4.0 mph NW6.4 kmh NW 8.0 mph12.9 kmh 30.21 in1023.0 mb 0.00 in0.0 mm 0.00 in0.0 mm 0.57 in14.5 mm
11:40 PM 50.8°F10.4°C -8.6°F-22.6°C 8% 4.0 mph NW6.4 kmh NW 9.0 mph14.5 kmh 30.21 in1023.0 mb 0.00 in0.0 mm 0.00 in0.0 mm 0.57 in14.5 mm
11:45 PM 50.8°F10.4°C -6.1°F-21.2°C 9% 4.0 mph NNW6.4 kmh NNW 9.0 mph14.5 kmh 30.21 in1023.0 mb 0.00 in0.0 mm 0.00 in0.0 mm 0.57 in14.5 mm
11:50 PM 50.8°F10.4°C 3.2°F-16.0°C 14% 4.0 mph NNW6.4 kmh NNW 10.0 mph16.1 kmh 30.21 in1023.0 mb 0.00 in0.0 mm 0.00 in0.0 mm 0.57 in14.5 mm
11:55 PM 50.8°F10.4°C 4.7°F-15.2°C 15% 4.0 mph NW6.4 kmh NW 10.0 mph16.1 kmh 30.22 in1023.4 mb 0.00 in0.0 mm 0.00 in0.0 mm 0.57 in14.5 mm